createdAt,value
2019-03-01T00:00:25.988Z,47.23
2019-03-01T00:03:14.422Z,46.63
2019-03-01T00:06:20.174Z,45.39
2019-03-01T00:09:38.055Z,45.73
2019-03-01T00:12:34.282Z,45.84
2019-03-01T00:15:35.193Z,46.74
2019-03-01T00:18:40.470Z,47.49
2019-03-01T00:21:56.421Z,47.80
2019-03-01T00:25:18.314Z,45.66
2019-03-01T00:28:28.353Z,44.55
2019-03-01T00:31:44.188Z,44.68
2019-03-01T00:34:38.469Z,43.84
2019-03-01T00:37:38.857Z,43.94
2019-03-01T00:40:51.491Z,43.75
2019-03-01T00:43:52.843Z,43.48
2019-03-01T00:46:46.708Z,44.78
2019-03-01T00:49:34.612Z,43.93
2019-03-01T00:52:22.459Z,44.25
2019-03-01T00:55:10.387Z,44.67
2019-03-01T00:57:59.418Z,45.43
2019-03-01T01:00:57.005Z,46.59
2019-03-01T01:03:45.355Z,47.65
2019-03-01T01:06:35.307Z,52.06
2019-03-01T01:09:23.883Z,54.95
2019-03-01T01:12:12.015Z,56.15
2019-03-01T01:15:05.732Z,57.60
2019-03-01T01:17:54.166Z,58.74
2019-03-01T01:20:48.380Z,60.05
2019-03-01T01:23:36.913Z,60.99
2019-03-01T01:26:24.851Z,61.48
2019-03-01T01:29:14.427Z,62.05
2019-03-01T01:32:02.815Z,62.60
2019-03-01T01:34:50.891Z,62.77
2019-03-01T01:37:39.338Z,63.55
2019-03-01T01:40:27.496Z,64.57
2019-03-01T01:43:15.821Z,65.17
2019-03-01T01:46:03.522Z,65.20
2019-03-01T01:48:52.012Z,65.19
2019-03-01T01:51:40.398Z,65.99
2019-03-01T01:54:28.621Z,65.01
2019-03-01T01:57:16.292Z,66.38
2019-03-01T02:00:05.371Z,65.06
2019-03-01T02:02:53.724Z,66.33
2019-03-01T02:05:41.423Z,67.46
2019-03-01T02:08:29.596Z,66.52
2019-03-01T02:11:17.303Z,66.19
2019-03-01T02:14:05.344Z,67.03
2019-03-01T02:16:53.403Z,65.64
2019-03-01T02:19:41.914Z,66.03
2019-03-01T02:22:30.331Z,67.28
2019-03-01T02:25:18.669Z,66.39
2019-03-01T02:28:06.662Z,66.35
2019-03-01T02:30:55.420Z,67.06
2019-03-01T02:33:43.330Z,66.76
2019-03-01T02:36:31.707Z,65.32
2019-03-01T02:39:20.187Z,65.82
2019-03-01T02:42:08.289Z,57.26
2019-03-01T02:44:56.689Z,52.88
2019-03-01T02:47:45.088Z,47.35
2019-03-01T02:50:33.058Z,45.34
2019-03-01T02:53:21.036Z,43.31
2019-03-01T02:56:09.195Z,41.94
2019-03-01T02:58:56.861Z,42.15
2019-03-01T03:01:45.179Z,43.32
2019-03-01T03:04:33.244Z,41.16
2019-03-01T03:07:29.443Z,44.33
2019-03-01T03:10:18.073Z,44.68
2019-03-01T03:13:07.552Z,46.55
2019-03-01T03:15:55.493Z,46.16
2019-03-01T03:18:43.976Z,48.01
2019-03-01T03:21:31.839Z,48.51
2019-03-01T03:24:20.007Z,46.33
2019-03-01T03:27:08.450Z,45.80
2019-03-01T03:29:56.887Z,44.63
2019-03-01T03:32:45.284Z,42.86
2019-03-01T03:35:33.705Z,42.79
2019-03-01T03:38:21.693Z,42.48
2019-03-01T03:41:09.691Z,41.36
2019-03-01T03:43:58.049Z,39.50
2019-03-01T03:46:46.078Z,39.58
2019-03-01T03:49:33.933Z,39.53
2019-03-01T03:52:22.336Z,39.89
2019-03-01T03:55:11.312Z,40.49
2019-03-01T03:57:59.467Z,40.73
2019-03-01T04:00:47.609Z,40.19
2019-03-01T04:03:36.171Z,40.63
2019-03-01T04:06:24.547Z,40.80
2019-03-01T04:09:12.358Z,40.98
2019-03-01T04:12:00.772Z,40.74
2019-03-01T04:14:48.598Z,40.93
2019-03-01T04:17:36.896Z,41.50
2019-03-01T04:20:24.781Z,42.11
2019-03-01T04:23:13.146Z,42.13
2019-03-01T04:26:01.863Z,43.00
2019-03-01T04:28:49.941Z,43.26
2019-03-01T04:31:38.393Z,43.34
2019-03-01T04:34:26.689Z,42.60
2019-03-01T04:37:15.236Z,40.83
2019-03-01T04:40:03.475Z,41.32
2019-03-01T04:42:51.952Z,42.08
2019-03-01T04:45:40.010Z,41.63
2019-03-01T04:48:28.126Z,41.50
2019-03-01T04:51:16.583Z,40.89
2019-03-01T04:54:05.085Z,41.53
2019-03-01T04:56:53.164Z,41.97
2019-03-01T04:59:41.315Z,42.46
2019-03-01T05:02:29.869Z,42.65
2019-03-01T05:05:18.564Z,43.06
2019-03-01T05:08:06.639Z,42.90
2019-03-01T05:10:55.132Z,42.63
2019-03-01T05:13:43.487Z,42.94
2019-03-01T05:16:31.629Z,42.41
2019-03-01T05:19:20.083Z,42.47
2019-03-01T05:22:08.506Z,43.69
2019-03-01T05:24:56.621Z,43.40
2019-03-01T05:27:45.281Z,42.91
2019-03-01T05:30:34.338Z,43.30
2019-03-01T05:33:25.439Z,43.92
2019-03-01T05:36:13.899Z,44.00
2019-03-01T05:39:01.977Z,43.52
2019-03-01T05:41:52.734Z,42.81
2019-03-01T05:44:40.490Z,43.49
2019-03-01T05:47:34.873Z,43.63
2019-03-01T05:50:23.211Z,43.24
2019-03-01T05:53:11.122Z,42.69
2019-03-01T05:55:59.558Z,42.19
2019-03-01T05:59:20.462Z,42.64
2019-03-01T06:02:33.051Z,42.86
2019-03-01T06:05:27.498Z,43.16
2019-03-01T06:08:40.830Z,43.97
2019-03-01T06:11:37.488Z,42.49
2019-03-01T06:14:30.864Z,41.91
2019-03-01T06:17:27.544Z,41.66
2019-03-01T06:20:23.304Z,41.45
2019-03-01T06:23:37.502Z,41.50
2019-03-01T06:26:53.165Z,41.87
2019-03-01T06:30:09.658Z,41.63
2019-03-01T06:33:08.134Z,42.32
2019-03-01T06:36:19.609Z,41.45
2019-03-01T06:39:55.679Z,41.45
2019-03-01T06:42:53.072Z,41.47
2019-03-01T06:45:55.396Z,40.59
2019-03-01T06:48:54.207Z,40.31
2019-03-01T06:51:42.217Z,39.96
2019-03-01T06:54:30.299Z,39.87
2019-03-01T06:57:18.887Z,39.87
2019-03-01T07:00:07.896Z,39.68
2019-03-01T07:02:58.874Z,39.45
2019-03-01T07:05:46.630Z,39.77
2019-03-01T07:08:34.720Z,39.20
2019-03-01T07:11:23.217Z,39.21
2019-03-01T07:14:11.703Z,40.23
2019-03-01T07:17:00.044Z,40.80
2019-03-01T07:19:48.225Z,41.03
2019-03-01T07:22:35.892Z,41.68
2019-03-01T07:25:23.632Z,41.63
2019-03-01T07:28:12.024Z,41.99
2019-03-01T07:30:59.748Z,42.35
2019-03-01T07:33:47.500Z,42.24
2019-03-01T07:36:36.033Z,42.62
2019-03-01T07:39:24.609Z,42.84
2019-03-01T07:42:12.394Z,43.32
2019-03-01T07:45:00.829Z,42.53
2019-03-01T07:47:49.439Z,43.72
2019-03-01T07:50:37.789Z,42.57
2019-03-01T07:53:26.215Z,42.33
2019-03-01T07:56:13.892Z,42.38
2019-03-01T07:59:01.817Z,42.52
2019-03-01T08:01:49.283Z,42.32
2019-03-01T08:04:37.337Z,42.68
2019-03-01T08:07:25.094Z,42.77
2019-03-01T08:10:20.614Z,42.46
2019-03-01T08:13:03.525Z,42.64
2019-03-01T08:15:51.229Z,42.72
2019-03-01T08:18:40.162Z,42.91
2019-03-01T08:21:28.404Z,42.62
2019-03-01T08:24:16.932Z,42.62
2019-03-01T08:27:06.519Z,41.86
2019-03-01T08:29:54.923Z,42.67
2019-03-01T08:32:43.324Z,42.57
2019-03-01T08:35:32.325Z,42.80
2019-03-01T08:38:21.260Z,42.89
2019-03-01T08:41:09.314Z,42.88
2019-03-01T08:43:58.061Z,42.53
2019-03-01T08:46:46.591Z,42.60
2019-03-01T08:49:35.227Z,42.99
2019-03-01T08:52:23.455Z,42.35
2019-03-01T08:55:12.298Z,42.54
2019-03-01T08:58:03.445Z,42.72
2019-03-01T09:00:59.014Z,42.41
2019-03-01T09:03:47.539Z,42.61
2019-03-01T09:06:36.356Z,42.13
2019-03-01T09:09:25.208Z,42.33
2019-03-01T09:12:14.273Z,41.85
2019-03-01T09:15:04.420Z,42.24
2019-03-01T09:17:54.147Z,42.24
2019-03-01T09:20:42.321Z,42.08
2019-03-01T09:23:33.357Z,42.13
2019-03-01T09:26:21.765Z,41.91
2019-03-01T09:29:13.030Z,41.58
2019-03-01T09:32:02.065Z,42.26
2019-03-01T09:34:54.793Z,41.83
2019-03-01T09:37:42.969Z,41.77
2019-03-01T09:40:31.067Z,42.42
2019-03-01T09:43:19.005Z,42.67
2019-03-01T09:46:07.176Z,42.51
2019-03-01T09:48:55.728Z,43.45
2019-03-01T09:51:49.214Z,44.30
2019-03-01T09:54:33.397Z,43.98
2019-03-01T09:57:21.547Z,43.28
2019-03-01T10:00:10.875Z,44.18
2019-03-01T10:02:58.968Z,44.06
2019-03-01T10:05:47.420Z,43.95
2019-03-01T10:08:35.879Z,44.46
2019-03-01T10:11:24.071Z,43.96
2019-03-01T10:14:12.492Z,44.13
2019-03-01T10:17:00.715Z,43.84
2019-03-01T10:19:49.115Z,43.58
2019-03-01T10:22:37.220Z,42.76
2019-03-01T10:25:25.512Z,42.91
2019-03-01T10:28:13.816Z,43.21
2019-03-01T10:31:01.813Z,43.26
2019-03-01T10:33:50.187Z,43.56
2019-03-01T10:36:38.277Z,43.41
2019-03-01T10:39:26.776Z,43.62
2019-03-01T10:42:15.199Z,43.58
2019-03-01T10:45:03.396Z,43.27
2019-03-01T10:47:51.779Z,43.34
2019-03-01T10:50:40.172Z,42.90
2019-03-01T10:53:28.466Z,42.61
2019-03-01T10:56:16.748Z,41.97
2019-03-01T10:59:04.529Z,42.06
2019-03-01T11:01:52.937Z,41.73
2019-03-01T11:04:41.552Z,41.82
2019-03-01T11:07:29.591Z,41.15
2019-03-01T11:10:19.234Z,41.12
2019-03-01T11:13:07.968Z,40.92
2019-03-01T11:15:56.477Z,40.86
2019-03-01T11:18:45.068Z,41.25
2019-03-01T11:21:33.125Z,41.29
2019-03-01T11:24:21.484Z,39.90
2019-03-01T11:27:12.916Z,40.31
2019-03-01T11:29:59.747Z,39.69
2019-03-01T11:32:47.632Z,39.45
2019-03-01T11:35:35.792Z,40.23
2019-03-01T11:38:23.972Z,40.07
2019-03-01T11:41:12.032Z,39.43
2019-03-01T11:44:00.707Z,39.21
2019-03-01T11:46:48.867Z,39.21
2019-03-01T11:49:37.337Z,39.14
2019-03-01T11:52:25.302Z,38.66
2019-03-01T12:09:10.555Z,38.94
2019-03-01T12:11:58.962Z,38.57
2019-03-01T12:14:47.048Z,38.53
2019-03-01T12:21:16.987Z,39.07
2019-03-01T12:24:04.791Z,39.24
2019-03-01T12:26:52.525Z,39.30
2019-03-01T12:29:40.931Z,38.55
2019-03-01T12:32:29.317Z,39.06
2019-03-01T12:35:17.847Z,39.37
2019-03-01T12:38:05.807Z,39.52
2019-03-01T12:40:53.660Z,39.09
2019-03-01T12:43:42.129Z,38.79
2019-03-01T12:46:30.598Z,38.76
2019-03-01T12:49:19.043Z,38.35
2019-03-01T12:52:07.487Z,39.17
2019-03-01T12:54:55.227Z,39.38
2019-03-01T12:57:43.339Z,38.79
2019-03-01T13:00:32.137Z,38.87
2019-03-01T13:03:20.217Z,39.28
2019-03-01T13:06:08.289Z,38.78
2019-03-01T13:08:56.704Z,37.74
2019-03-01T13:11:44.430Z,37.98
2019-03-01T13:14:14.168Z,38.00
2019-03-01T13:16:43.902Z,37.41
2019-03-01T13:19:13.857Z,37.39
2019-03-01T13:21:45.507Z,37.73
2019-03-01T13:24:16.353Z,37.81
2019-03-01T13:26:46.362Z,37.91
2019-03-01T13:29:19.137Z,37.85
2019-03-01T13:31:47.929Z,37.18
2019-03-01T13:34:17.788Z,36.88
2019-03-01T13:36:47.536Z,36.25
2019-03-01T13:39:20.696Z,36.37
2019-03-01T13:41:51.183Z,35.51
2019-03-01T13:44:22.150Z,35.27
2019-03-01T13:46:53.091Z,35.23
2019-03-01T13:49:26.752Z,35.18
2019-03-01T13:51:56.588Z,34.16
2019-03-01T13:54:27.444Z,34.67
2019-03-01T13:56:59.936Z,34.22
2019-03-01T13:59:30.795Z,34.16
2019-03-01T14:02:04.330Z,33.31
2019-03-01T14:04:36.581Z,32.83
2019-03-01T14:07:06.834Z,31.40
2019-03-01T14:09:37.687Z,31.80
2019-03-01T14:12:08.576Z,31.59
2019-03-01T14:14:39.436Z,31.50
2019-03-01T14:17:10.295Z,31.35
2019-03-01T14:19:42.211Z,31.82
2019-03-01T14:22:14.092Z,31.93
2019-03-01T14:24:44.942Z,30.70
2019-03-01T14:27:15.860Z,30.72
2019-03-01T14:29:52.544Z,31.92
2019-03-01T14:32:21.699Z,32.00
2019-03-01T14:34:51.920Z,31.76
2019-03-01T14:37:22.878Z,31.16
2019-03-01T14:39:53.741Z,31.34
2019-03-01T14:42:24.628Z,32.03
2019-03-01T14:44:55.492Z,31.51
2019-03-01T14:47:29.040Z,31.95
2019-03-01T14:50:00.790Z,31.76
2019-03-01T14:52:31.808Z,32.79
2019-03-01T14:55:02.707Z,32.71
2019-03-01T14:57:36.879Z,33.34
2019-03-01T15:00:20.351Z,33.61
2019-03-01T15:03:27.475Z,33.61
2019-03-01T15:05:58.489Z,33.60
2019-03-01T15:08:29.424Z,34.75
2019-03-01T15:11:04.271Z,34.74
2019-03-01T15:13:35.958Z,34.61
2019-03-01T15:16:08.036Z,34.49
2019-03-01T15:18:39.790Z,36.30
2019-03-01T15:21:11.381Z,37.66
2019-03-01T15:23:42.316Z,38.39
2019-03-01T15:26:16.358Z,39.07
2019-03-01T15:28:55.432Z,39.57
2019-03-01T15:31:24.688Z,39.46
2019-03-01T15:33:55.540Z,39.65
2019-03-01T15:36:26.584Z,39.89
2019-03-01T15:38:57.576Z,40.19
2019-03-01T15:41:28.436Z,40.14
2019-03-01T15:43:59.293Z,40.39
2019-03-01T15:46:30.272Z,41.32
2019-03-01T15:49:01.151Z,41.62
2019-03-01T15:51:34.688Z,42.44
2019-03-01T15:54:04.834Z,42.65
2019-03-01T15:56:35.691Z,42.89
2019-03-01T15:59:09.650Z,42.68
2019-03-01T16:01:39.204Z,43.01
2019-03-01T16:04:10.162Z,42.99
2019-03-01T16:06:41.018Z,43.14
2019-03-01T16:09:18.151Z,43.22
2019-03-01T16:11:49.027Z,43.38
2019-03-01T16:14:24.305Z,43.08
2019-03-01T16:16:54.802Z,43.30
2019-03-01T16:19:25.689Z,42.87
2019-03-01T16:21:56.555Z,43.23
2019-03-01T16:24:27.952Z,43.17
2019-03-01T16:26:59.006Z,43.66
2019-03-01T16:29:29.987Z,43.74
2019-03-01T16:32:00.974Z,43.92
2019-03-01T16:34:31.964Z,44.25
2019-03-01T16:37:03.156Z,45.66
2019-03-01T16:39:35.255Z,44.67
2019-03-01T16:42:14.543Z,44.72
2019-03-01T16:44:45.403Z,45.14
2019-03-01T16:47:16.539Z,45.42
2019-03-01T16:49:48.822Z,45.43
2019-03-01T16:52:23.180Z,46.05
2019-03-01T16:54:54.814Z,46.84
2019-03-01T16:57:26.108Z,46.94
2019-03-01T16:59:57.420Z,47.00
2019-03-01T17:02:28.350Z,47.68
2019-03-01T17:04:59.742Z,47.85
2019-03-01T17:07:31.824Z,48.09
2019-03-01T17:10:03.102Z,48.68
2019-03-01T17:12:34.383Z,48.81
2019-03-01T17:15:05.939Z,49.71
2019-03-01T17:17:37.782Z,49.99
2019-03-01T17:20:10.054Z,51.57
2019-03-01T17:22:40.906Z,51.96
2019-03-01T17:25:12.286Z,51.54
2019-03-01T17:27:44.123Z,53.39
2019-03-01T17:30:17.908Z,53.01
2019-03-01T17:32:49.050Z,52.86
2019-03-01T17:35:20.261Z,53.23
2019-03-01T17:37:51.202Z,53.08
2019-03-01T17:40:22.328Z,52.63
2019-03-01T17:42:56.419Z,53.41
2019-03-01T17:45:27.647Z,54.28
2019-03-01T17:48:01.717Z,54.95
2019-03-01T17:50:32.879Z,55.46
2019-03-01T17:53:06.206Z,55.66
2019-03-01T17:55:38.445Z,55.05
2019-03-01T17:58:09.717Z,55.44
2019-03-01T18:00:42.978Z,56.76
2019-03-01T18:03:13.926Z,57.64
2019-03-01T18:05:46.512Z,58.03
2019-03-01T18:08:17.375Z,58.29
2019-03-01T18:10:49.830Z,57.73
2019-03-01T18:13:20.912Z,58.85
2019-03-01T18:15:51.778Z,58.30
2019-03-01T18:18:22.678Z,58.37
2019-03-01T18:20:53.562Z,58.64
2019-03-01T18:23:24.420Z,60.38
2019-03-01T18:25:55.378Z,60.57
2019-03-01T18:28:28.328Z,59.22
2019-03-01T18:30:58.781Z,59.43
2019-03-01T18:33:29.680Z,58.56
2019-03-01T18:36:00.841Z,60.06
2019-03-01T18:38:32.457Z,60.49
2019-03-01T18:41:03.719Z,61.27
2019-03-01T18:43:35.742Z,60.95
2019-03-01T18:46:06.687Z,62.44
2019-03-01T18:48:40.562Z,63.85
2019-03-01T18:51:10.127Z,61.72
2019-03-01T18:53:41.050Z,64.09
2019-03-01T18:56:12.002Z,62.97
2019-03-01T18:58:45.730Z,63.11
2019-03-01T19:01:15.628Z,62.99
2019-03-01T19:03:46.541Z,60.33
2019-03-01T19:06:17.430Z,61.74
2019-03-01T19:08:48.331Z,61.71
2019-03-01T19:11:19.213Z,63.01
2019-03-01T19:13:50.101Z,63.98
2019-03-01T19:16:21.059Z,65.35
2019-03-01T19:18:53.093Z,66.96
2019-03-01T19:21:25.716Z,67.55
2019-03-01T19:24:04.738Z,67.94
2019-03-01T19:26:36.526Z,69.12
2019-03-01T19:29:08.221Z,69.25
2019-03-01T19:31:39.096Z,67.21
2019-03-01T19:34:12.982Z,68.96
2019-03-01T19:36:42.657Z,69.16
2019-03-01T19:39:21.535Z,69.61
2019-03-01T19:41:54.511Z,70.93
2019-03-01T19:44:28.922Z,70.92
2019-03-01T19:46:58.570Z,70.99
2019-03-01T19:49:29.585Z,71.76
2019-03-01T19:52:00.457Z,72.42
2019-03-01T19:54:32.404Z,70.45
2019-03-01T19:57:04.274Z,72.50
2019-03-01T19:59:35.216Z,71.68
2019-03-01T20:02:06.191Z,71.71
2019-03-01T20:04:37.053Z,71.43
2019-03-01T20:07:10.655Z,72.94
2019-03-01T20:09:41.870Z,74.72
2019-03-01T20:12:13.222Z,75.77
2019-03-01T20:14:44.359Z,76.03
2019-03-01T20:17:15.560Z,76.49
2019-03-01T20:19:46.729Z,75.10
2019-03-01T20:22:18.609Z,76.77
2019-03-01T20:24:51.660Z,77.82
2019-03-01T20:27:22.532Z,79.53
2019-03-01T20:29:55.459Z,81.59
2019-03-01T20:32:26.343Z,81.64
2019-03-01T20:34:57.437Z,81.14
2019-03-01T20:37:28.661Z,81.47
2019-03-01T20:39:59.613Z,80.16
2019-03-01T20:42:30.639Z,78.56
2019-03-01T20:45:02.838Z,78.84
2019-03-01T20:47:33.792Z,78.61
2019-03-01T20:50:04.818Z,79.71
2019-03-01T20:52:38.084Z,81.01
2019-03-01T20:55:09.056Z,82.56
2019-03-01T20:57:40.728Z,83.08
2019-03-01T21:00:30.484Z,81.35
2019-03-01T21:03:20.184Z,80.03
2019-03-01T21:06:09.178Z,79.86
2019-03-01T21:09:00.749Z,82.03
2019-03-01T21:11:49.374Z,80.61
2019-03-01T21:14:38.143Z,80.05
2019-03-01T21:17:29.331Z,79.16
2019-03-01T21:20:19.556Z,79.29
2019-03-01T21:23:11.742Z,79.83
2019-03-01T21:26:00.633Z,78.60
2019-03-01T21:28:50.206Z,79.20
2019-03-01T21:31:39.487Z,80.32
2019-03-01T21:34:29.134Z,79.65
2019-03-01T21:37:18.415Z,79.90
2019-03-01T21:40:07.912Z,80.90
2019-03-01T21:42:59.993Z,84.58
2019-03-01T21:45:48.934Z,85.96
2019-03-01T21:48:38.258Z,86.19
2019-03-01T21:51:27.878Z,86.82
2019-03-01T21:54:17.545Z,86.63
2019-03-01T21:57:07.025Z,86.87
2019-03-01T21:59:56.829Z,87.44
2019-03-01T22:02:48.851Z,85.41
2019-03-01T22:05:36.593Z,83.63
2019-03-01T22:08:26.140Z,83.93
2019-03-01T22:11:15.432Z,83.45
2019-03-01T22:14:07.630Z,82.75
2019-03-01T22:16:55.405Z,82.71
2019-03-01T22:19:47.031Z,82.01
2019-03-01T22:22:37.508Z,81.81
2019-03-01T22:25:27.424Z,80.70
2019-03-01T22:28:16.279Z,80.58
2019-03-01T22:31:05.520Z,81.20
2019-03-01T22:33:55.862Z,81.09
2019-03-01T22:36:45.682Z,84.16
2019-03-01T22:39:34.955Z,85.27
2019-03-01T22:42:24.439Z,85.38
2019-03-01T22:45:14.652Z,85.70
2019-03-01T22:48:08.441Z,87.81
2019-03-01T22:50:56.227Z,90.45
2019-03-01T22:53:45.750Z,91.07
2019-03-01T22:56:35.084Z,92.62
2019-03-01T22:59:24.745Z,92.24
2019-03-01T23:02:16.512Z,90.55
2019-03-01T23:05:06.217Z,88.92
2019-03-01T23:07:56.952Z,89.26
2019-03-01T23:10:46.330Z,90.23
2019-03-01T23:13:35.696Z,89.78
2019-03-01T23:16:25.031Z,89.00
2019-03-01T23:19:16.086Z,89.51
2019-03-01T23:22:07.541Z,90.54
2019-03-01T23:24:55.058Z,90.74
2019-03-01T23:27:44.592Z,91.31
2019-03-01T23:30:33.959Z,90.56
2019-03-01T23:33:23.287Z,90.30
2019-03-01T23:36:12.605Z,90.18
2019-03-01T23:39:02.197Z,89.33
2019-03-01T23:41:51.442Z,87.00
2019-03-01T23:44:41.514Z,85.62
2019-03-01T23:47:34.650Z,85.11
2019-03-01T23:50:23.565Z,84.83
2019-03-01T23:53:12.792Z,85.79
2019-03-01T23:56:02.127Z,84.42
2019-03-01T23:58:52.774Z,86.20
